createdAt,value
2022-12-18T00:01:28.920Z,73.92
2022-12-18T00:03:57.004Z,95.16
2022-12-18T00:06:26.269Z,70.70
2022-12-18T00:08:54.172Z,73.39
2022-12-18T00:11:25.039Z,74.81
2022-12-18T00:13:54.296Z,74.82
2022-12-18T00:16:24.418Z,75.18
2022-12-18T00:18:54.646Z,75.23
2022-12-18T00:21:22.782Z,74.52
2022-12-18T00:23:51.382Z,75.05
2022-12-18T00:26:25.863Z,74.68
2022-12-18T00:28:53.992Z,74.63
2022-12-18T00:31:24.504Z,74.20
2022-12-18T00:33:53.966Z,74.61
2022-12-18T00:36:29.587Z,74.15
2022-12-18T00:38:59.165Z,74.46
2022-12-18T00:41:45.074Z,74.47
2022-12-18T00:44:16.049Z,73.65
2022-12-18T00:46:45.362Z,73.75
2022-12-18T00:49:12.404Z,73.66
2022-12-18T00:51:39.360Z,73.93
2022-12-18T00:54:06.455Z,73.73
2022-12-18T00:56:33.388Z,74.04
2022-12-18T00:59:00.341Z,73.73
2022-12-18T01:01:27.922Z,73.49
2022-12-18T01:03:54.927Z,73.39
2022-12-18T01:06:21.968Z,73.21
2022-12-18T01:08:48.947Z,73.53
2022-12-18T01:11:19.231Z,73.38
2022-12-18T01:13:46.219Z,73.08
2022-12-18T01:16:16.301Z,72.99
2022-12-18T01:18:43.815Z,73.22
2022-12-18T01:21:14.640Z,73.04
2022-12-18T01:23:42.082Z,72.50
2022-12-18T01:26:14.275Z,72.42
2022-12-18T01:28:41.769Z,71.77
2022-12-18T01:31:20.701Z,71.65
2022-12-18T01:33:49.812Z,71.25
2022-12-18T01:36:24.256Z,71.27
2022-12-18T01:38:52.974Z,71.18
2022-12-18T01:41:26.032Z,71.46
2022-12-18T01:44:00.377Z,71.51
2022-12-18T01:46:28.412Z,71.46
2022-12-18T01:49:02.137Z,70.73
2022-12-18T01:51:31.026Z,71.25
2022-12-18T01:53:58.740Z,71.20
2022-12-18T01:56:25.741Z,71.38
2022-12-18T01:59:04.865Z,70.81
2022-12-18T02:01:33.637Z,71.26
2022-12-18T02:04:24.635Z,70.97
2022-12-18T02:07:26.568Z,70.66
2022-12-18T02:10:03.211Z,70.96
2022-12-18T02:12:46.286Z,71.40
2022-12-18T02:15:24.781Z,71.35
2022-12-18T02:18:02.390Z,71.63
2022-12-18T02:20:50.123Z,71.52
2022-12-18T02:23:37.460Z,71.47
2022-12-18T02:26:26.836Z,71.83
2022-12-18T02:29:23.806Z,71.24
2022-12-18T02:31:56.093Z,70.97
2022-12-18T02:34:29.385Z,71.75
2022-12-18T02:36:58.611Z,72.01
2022-12-18T02:39:27.906Z,71.81
2022-12-18T02:41:55.046Z,71.80
2022-12-18T02:44:22.009Z,72.03
2022-12-18T02:46:54.463Z,72.14
2022-12-18T02:50:03.353Z,71.29
2022-12-18T02:52:51.626Z,71.77
2022-12-18T02:55:48.941Z,71.68
2022-12-18T02:59:09.171Z,72.22
2022-12-18T03:01:53.258Z,71.64
2022-12-18T03:04:27.921Z,71.39
2022-12-18T03:07:01.470Z,70.34
2022-12-18T03:09:37.986Z,70.40
2022-12-18T03:12:25.588Z,71.37
2022-12-18T03:15:04.249Z,71.37
2022-12-18T03:17:34.699Z,71.36
2022-12-18T03:20:11.693Z,71.73
2022-12-18T03:22:42.417Z,71.68
2022-12-18T03:25:14.418Z,71.76
2022-12-18T03:27:48.615Z,72.14
2022-12-18T03:30:18.034Z,72.10
2022-12-18T03:33:08.861Z,71.77
2022-12-18T03:35:41.237Z,72.56
2022-12-18T03:38:08.952Z,72.09
2022-12-18T03:41:24.897Z,72.34
2022-12-18T03:44:12.911Z,72.41
2022-12-18T03:47:17.769Z,72.52
2022-12-18T03:50:12.799Z,71.74
2022-12-18T03:52:53.917Z,71.78
2022-12-18T03:55:22.820Z,72.16
2022-12-18T03:57:51.072Z,72.53
2022-12-18T04:00:20.599Z,72.60
2022-12-18T04:02:53.282Z,72.72
2022-12-18T04:05:22.776Z,72.56
2022-12-18T04:07:51.824Z,72.56
2022-12-18T04:10:19.630Z,72.81
2022-12-18T04:12:46.761Z,72.79
2022-12-18T04:15:14.214Z,72.98
2022-12-18T04:17:49.672Z,72.99
2022-12-18T04:20:17.570Z,72.69
2022-12-18T04:22:44.558Z,72.31
2022-12-18T04:25:13.543Z,72.80
2022-12-18T04:27:40.680Z,72.32
2022-12-18T04:30:09.200Z,72.57
2022-12-18T04:32:36.246Z,72.60
2022-12-18T04:35:05.243Z,73.02
2022-12-18T04:37:32.215Z,72.42
2022-12-18T04:39:59.262Z,71.86
2022-12-18T04:42:26.195Z,72.22
2022-12-18T04:44:53.130Z,71.99
2022-12-18T04:47:20.073Z,72.19
2022-12-18T04:49:47.089Z,72.04
2022-12-18T04:52:14.020Z,72.06
2022-12-18T04:54:40.949Z,71.86
2022-12-18T04:57:07.978Z,71.80
2022-12-18T04:59:34.980Z,71.52
2022-12-18T05:02:02.009Z,71.50
2022-12-18T05:04:29.073Z,71.83
2022-12-18T05:06:56.047Z,71.45
2022-12-18T05:09:22.965Z,71.80
2022-12-18T05:11:50.013Z,72.27
2022-12-18T05:14:16.958Z,72.57
2022-12-18T05:16:43.888Z,73.21
2022-12-18T05:19:11.502Z,73.04
2022-12-18T05:21:38.796Z,73.55
2022-12-18T05:24:06.209Z,73.36
2022-12-18T05:26:33.148Z,73.70
2022-12-18T05:29:00.181Z,73.96
2022-12-18T05:31:27.216Z,73.12
2022-12-18T05:33:55.034Z,73.06
2022-12-18T05:36:21.985Z,73.17
2022-12-18T05:38:48.985Z,73.26
2022-12-18T05:41:16.097Z,73.48
2022-12-18T05:43:43.852Z,73.92
2022-12-18T05:46:16.358Z,73.68
2022-12-18T05:48:43.689Z,73.67
2022-12-18T05:51:15.569Z,74.33
2022-12-18T05:53:43.846Z,74.61
2022-12-18T05:56:22.426Z,75.06
2022-12-18T05:58:54.441Z,75.07
2022-12-18T06:01:26.153Z,74.86
2022-12-18T06:03:53.480Z,75.28
2022-12-18T06:06:27.031Z,75.96
2022-12-18T06:08:55.995Z,75.89
2022-12-18T06:11:27.292Z,76.53
2022-12-18T06:13:58.984Z,76.93
2022-12-18T06:16:28.088Z,76.65
2022-12-18T06:18:58.613Z,76.39
2022-12-18T06:21:26.060Z,76.69
2022-12-18T06:23:53.097Z,77.27
2022-12-18T06:26:26.180Z,76.83
2022-12-18T06:28:54.976Z,76.94
2022-12-18T06:31:22.002Z,77.59
2022-12-18T06:33:49.015Z,77.52
2022-12-18T06:36:16.863Z,77.35
2022-12-18T06:38:45.350Z,77.42
2022-12-18T06:41:16.147Z,77.41
2022-12-18T06:43:44.757Z,77.71
2022-12-18T06:46:12.822Z,76.88
2022-12-18T06:48:40.392Z,77.26
2022-12-18T06:51:07.697Z,77.27
2022-12-18T06:53:34.664Z,77.63
2022-12-18T06:56:10.415Z,77.94
2022-12-18T06:58:39.353Z,78.21
2022-12-18T07:01:09.703Z,78.25
2022-12-18T07:03:38.788Z,78.10
2022-12-18T07:06:07.010Z,78.12
2022-12-18T07:08:34.370Z,77.79
2022-12-18T07:11:05.469Z,77.81
2022-12-18T07:13:32.923Z,77.07
2022-12-18T07:16:26.985Z,77.59
2022-12-18T07:18:56.227Z,77.54
2022-12-18T07:21:24.617Z,77.82
2022-12-18T07:23:51.764Z,77.71
2022-12-18T07:26:21.787Z,77.73
2022-12-18T07:28:49.502Z,77.30
2022-12-18T07:31:21.579Z,77.41
2022-12-18T07:33:50.214Z,77.07
2022-12-18T07:36:17.387Z,76.37
2022-12-18T07:38:47.229Z,76.89
2022-12-18T07:41:14.881Z,77.39
2022-12-18T07:43:42.731Z,77.37
2022-12-18T07:46:11.829Z,76.97
2022-12-18T07:48:42.292Z,77.04
2022-12-18T07:51:11.567Z,76.19
2022-12-18T07:53:39.157Z,75.79
2022-12-18T07:56:28.109Z,76.87
2022-12-18T07:58:58.014Z,76.62
2022-12-18T08:01:25.450Z,76.44
2022-12-18T08:03:52.760Z,76.67
2022-12-18T08:06:22.703Z,76.30
2022-12-18T08:08:56.681Z,76.20
2022-12-18T08:11:26.174Z,75.95
2022-12-18T08:13:53.644Z,75.51
2022-12-18T08:16:22.771Z,75.52
2022-12-18T08:18:50.469Z,75.52
2022-12-18T08:21:30.884Z,75.66
2022-12-18T08:24:00.568Z,75.19
2022-12-18T08:26:30.618Z,74.79
2022-12-18T08:28:59.836Z,74.44
2022-12-18T08:31:29.383Z,74.47
2022-12-18T08:33:57.082Z,74.63
2022-12-18T08:36:25.437Z,73.63
2022-12-18T08:38:54.182Z,74.35
2022-12-18T08:41:22.194Z,74.20
2022-12-18T08:44:07.775Z,74.10
2022-12-18T08:46:40.875Z,74.73
2022-12-18T08:49:09.198Z,74.56
2022-12-18T08:51:37.023Z,74.60
2022-12-18T08:54:06.385Z,74.66
2022-12-18T08:56:34.460Z,74.65
2022-12-18T08:59:01.539Z,74.25
2022-12-18T09:01:29.433Z,73.71
2022-12-18T09:03:56.764Z,73.49
2022-12-18T09:06:24.304Z,73.61
2022-12-18T09:08:51.558Z,72.64
2022-12-18T09:11:25.723Z,72.85
2022-12-18T09:13:54.828Z,73.21
2022-12-18T09:16:30.136Z,72.81
2022-12-18T09:19:02.959Z,71.44
2022-12-18T09:21:35.972Z,70.96
2022-12-18T09:24:08.632Z,70.72
2022-12-18T09:26:36.659Z,70.68
2022-12-18T09:29:04.499Z,70.42
2022-12-18T09:31:31.470Z,70.59
2022-12-18T09:33:58.453Z,70.32
2022-12-18T09:36:25.456Z,70.20
2022-12-18T09:38:52.456Z,69.34
2022-12-18T09:41:48.485Z,69.86
2022-12-18T09:44:41.429Z,68.91
2022-12-18T09:47:21.607Z,68.85
2022-12-18T09:49:53.644Z,68.19
2022-12-18T09:52:26.867Z,67.64
2022-12-18T09:55:11.974Z,68.54
2022-12-18T09:57:48.721Z,68.33
2022-12-18T10:00:23.400Z,69.00
2022-12-18T10:02:54.131Z,69.41
2022-12-18T10:05:42.398Z,69.42
2022-12-18T10:08:25.466Z,69.28
2022-12-18T10:11:27.082Z,69.50
2022-12-18T10:14:16.819Z,68.42
2022-12-18T10:16:59.467Z,68.83
2022-12-18T10:19:35.136Z,68.85
2022-12-18T10:22:16.861Z,68.06
2022-12-18T10:25:05.156Z,67.73
2022-12-18T10:27:32.309Z,68.28
2022-12-18T10:30:02.379Z,68.13
2022-12-18T10:32:31.735Z,68.38
2022-12-18T10:35:00.753Z,68.17
2022-12-18T10:37:30.736Z,68.33
2022-12-18T10:40:21.930Z,67.84
2022-12-18T10:43:05.233Z,67.95
2022-12-18T10:45:32.327Z,67.68
2022-12-18T10:47:59.803Z,67.66
2022-12-18T10:51:09.775Z,67.77
2022-12-18T10:53:29.136Z,67.34
2022-12-18T10:56:03.472Z,66.82
2022-12-18T10:58:33.877Z,66.75
2022-12-18T11:01:13.045Z,66.72
2022-12-18T11:03:47.793Z,67.13
2022-12-18T11:06:19.671Z,66.13
2022-12-18T11:09:26.035Z,66.46
2022-12-18T11:12:00.303Z,66.49
2022-12-18T11:14:34.781Z,65.81
2022-12-18T11:17:24.777Z,66.31
2022-12-18T11:20:10.487Z,65.43
2022-12-18T11:22:39.285Z,66.13
2022-12-18T11:25:32.359Z,66.35
2022-12-18T11:28:26.194Z,66.19
2022-12-18T11:31:17.047Z,66.58
2022-12-18T11:34:28.468Z,66.33
2022-12-18T11:36:56.375Z,66.57
2022-12-18T11:39:47.108Z,66.48
2022-12-18T11:42:39.434Z,65.58
2022-12-18T11:45:12.571Z,65.63
2022-12-18T11:48:25.977Z,66.49
2022-12-18T11:50:59.956Z,65.49
2022-12-18T11:53:28.576Z,65.15
2022-12-18T11:56:15.717Z,64.98
2022-12-18T11:59:18.839Z,66.10
2022-12-18T12:02:11.102Z,66.67
2022-12-18T12:05:27.413Z,66.06
2022-12-18T12:08:25.650Z,66.03
2022-12-18T12:11:21.439Z,65.91
2022-12-18T12:14:02.970Z,65.79
2022-12-18T12:17:10.156Z,64.28
2022-12-18T12:19:42.752Z,64.75
2022-12-18T12:22:31.167Z,64.92
2022-12-18T12:25:29.206Z,64.84
2022-12-18T12:28:17.177Z,64.83
2022-12-18T12:31:27.397Z,65.21
2022-12-18T12:34:08.749Z,66.12
2022-12-18T12:37:18.749Z,66.27
2022-12-18T12:39:49.393Z,65.89
2022-12-18T12:43:01.810Z,65.50
2022-12-18T12:45:57.022Z,65.88
2022-12-18T12:48:37.960Z,66.03
2022-12-18T12:51:33.128Z,65.36
2022-12-18T12:54:02.581Z,66.81
2022-12-18T12:56:47.326Z,67.48
2022-12-18T12:59:36.634Z,67.40
2022-12-18T13:02:16.517Z,67.42
2022-12-18T13:04:59.064Z,67.48
2022-12-18T13:07:47.181Z,67.47
2022-12-18T13:10:32.614Z,67.59
2022-12-18T13:13:17.937Z,67.49
2022-12-18T13:16:09.100Z,67.61
2022-12-18T13:18:36.568Z,68.53
2022-12-18T13:21:24.416Z,67.86
2022-12-18T13:23:51.738Z,67.79
2022-12-18T13:26:22.067Z,68.12
2022-12-18T13:28:56.228Z,67.86
2022-12-18T13:31:41.719Z,68.48
2022-12-18T13:37:42.871Z,68.88
2022-12-18T13:40:41.206Z,69.20
2022-12-18T13:43:25.437Z,69.37
2022-12-18T13:46:43.187Z,69.41
2022-12-18T13:49:42.500Z,69.44
2022-12-18T13:52:34.312Z,69.90
2022-12-18T13:55:08.109Z,70.28
2022-12-18T13:57:41.785Z,70.86
2022-12-18T14:00:24.136Z,70.68
2022-12-18T14:02:52.156Z,70.79
2022-12-18T14:05:30.954Z,70.73
2022-12-18T14:08:05.859Z,71.13
2022-12-18T14:10:42.231Z,71.17
2022-12-18T14:13:43.090Z,71.33
2022-12-18T14:16:17.679Z,71.31
2022-12-18T14:18:56.358Z,71.40
2022-12-18T14:21:31.129Z,71.70
2022-12-18T14:24:17.564Z,72.25
2022-12-18T14:26:51.024Z,72.01
2022-12-18T14:29:27.739Z,71.74
2022-12-18T14:32:18.656Z,72.13
2022-12-18T14:34:52.095Z,71.98
2022-12-18T14:37:27.301Z,71.95
2022-12-18T14:40:10.590Z,71.54
2022-12-18T14:42:38.798Z,71.85
2022-12-18T14:45:42.386Z,72.42
2022-12-18T14:48:23.362Z,73.51
2022-12-18T14:51:04.533Z,72.83
2022-12-18T14:53:39.210Z,73.18
2022-12-18T14:56:35.553Z,73.31
2022-12-18T14:59:23.865Z,73.16
2022-12-18T15:02:12.287Z,73.53
2022-12-18T15:04:44.667Z,73.70
2022-12-18T15:07:24.484Z,73.21
2022-12-18T15:10:22.137Z,73.77
2022-12-18T15:13:10.576Z,73.08
2022-12-18T15:15:37.648Z,74.11
2022-12-18T15:18:13.669Z,73.93
2022-12-18T15:20:49.538Z,73.90
2022-12-18T15:23:45.417Z,73.95
2022-12-18T15:26:15.920Z,74.05
2022-12-18T15:28:57.014Z,73.84
2022-12-18T15:31:29.849Z,73.87
2022-12-18T15:33:56.930Z,74.34
2022-12-18T15:36:26.490Z,73.98
2022-12-18T15:39:02.194Z,74.24
2022-12-18T15:41:37.669Z,74.34
2022-12-18T15:44:26.467Z,74.52
2022-12-18T15:46:53.640Z,74.24
2022-12-18T15:49:20.778Z,74.46
2022-12-18T15:51:55.867Z,74.16
2022-12-18T15:54:43.227Z,74.34
2022-12-18T15:57:24.197Z,74.25
2022-12-18T15:59:59.179Z,74.18
2022-12-18T16:02:26.893Z,74.39
2022-12-18T16:04:55.113Z,74.39
2022-12-18T16:07:24.579Z,74.22
2022-12-18T16:09:52.735Z,74.46
2022-12-18T16:12:25.532Z,74.83
2022-12-18T16:14:52.537Z,74.46
2022-12-18T16:17:19.528Z,74.42
2022-12-18T16:19:46.754Z,73.97
2022-12-18T16:22:26.307Z,74.24
2022-12-18T16:24:54.417Z,74.49
2022-12-18T16:27:22.817Z,74.10
2022-12-18T16:29:50.388Z,74.35
2022-12-18T16:32:23.420Z,74.25
2022-12-18T16:34:50.822Z,74.71
2022-12-18T16:37:18.171Z,74.88
2022-12-18T16:39:45.598Z,74.78
2022-12-18T16:42:19.820Z,74.41
2022-12-18T16:44:48.974Z,74.59
2022-12-18T16:47:16.842Z,74.57
2022-12-18T16:49:51.724Z,74.32
2022-12-18T16:52:19.303Z,74.43
2022-12-18T16:54:46.246Z,74.75
2022-12-18T16:57:18.038Z,74.46
2022-12-18T16:59:45.882Z,74.26
2022-12-18T17:02:30.373Z,74.27
2022-12-18T17:04:58.625Z,74.39
2022-12-18T17:07:27.355Z,74.02
2022-12-18T17:09:55.159Z,74.45
2022-12-18T17:12:23.559Z,74.85
2022-12-18T17:14:50.697Z,74.72
2022-12-18T17:17:21.482Z,74.69
2022-12-18T17:19:50.256Z,74.42
2022-12-18T17:22:17.873Z,74.67
2022-12-18T17:24:44.962Z,74.79
2022-12-18T17:27:12.209Z,74.63
2022-12-18T17:29:45.380Z,74.20
2022-12-18T17:32:14.972Z,74.58
2022-12-18T17:34:42.243Z,74.74
2022-12-18T17:37:09.902Z,74.71
2022-12-18T17:39:37.461Z,74.84
2022-12-18T17:42:05.313Z,74.73
2022-12-18T17:44:34.479Z,74.91
2022-12-18T17:47:02.381Z,74.44
2022-12-18T17:49:29.683Z,73.90
2022-12-18T17:51:56.668Z,74.29
2022-12-18T17:54:23.883Z,74.23
2022-12-18T17:56:51.029Z,74.66
2022-12-18T17:59:18.060Z,74.96
2022-12-18T18:01:45.724Z,75.10
2022-12-18T18:04:14.135Z,74.74
2022-12-18T18:06:41.789Z,74.73
2022-12-18T18:09:15.135Z,74.52
2022-12-18T18:12:03.739Z,74.86
2022-12-18T18:14:31.409Z,74.78
2022-12-18T18:17:04.307Z,74.23
2022-12-18T18:19:33.119Z,73.88
2022-12-18T18:22:00.503Z,74.13
2022-12-18T18:24:28.148Z,74.30
2022-12-18T18:26:55.102Z,74.69
2022-12-18T18:29:26.706Z,74.72
2022-12-18T18:31:54.904Z,74.43
2022-12-18T18:34:28.765Z,74.76
2022-12-18T18:36:55.825Z,75.01
2022-12-18T18:39:23.460Z,74.92
2022-12-18T18:41:50.578Z,75.05
2022-12-18T18:44:20.652Z,75.00
2022-12-18T18:46:58.543Z,74.84
2022-12-18T18:49:27.731Z,74.60
2022-12-18T18:51:56.542Z,75.00
2022-12-18T18:54:24.614Z,74.98
2022-12-18T18:59:38.908Z,75.55
2022-12-18T19:02:06.539Z,75.46
2022-12-18T19:04:34.613Z,75.42
2022-12-18T19:07:01.642Z,75.58
2022-12-18T19:09:29.513Z,75.33
2022-12-18T19:12:15.718Z,75.67
2022-12-18T19:14:43.987Z,75.85
2022-12-18T19:17:11.394Z,75.39
2022-12-18T19:19:38.960Z,75.72
2022-12-18T19:22:06.323Z,75.70
2022-12-18T19:24:33.379Z,76.00
2022-12-18T19:27:00.378Z,76.37
2022-12-18T19:29:27.441Z,76.55
2022-12-18T19:31:54.433Z,75.98
2022-12-18T19:34:21.534Z,76.24
2022-12-18T19:36:48.520Z,76.95
2022-12-18T19:39:19.275Z,76.58
2022-12-18T19:41:47.309Z,76.72
2022-12-18T19:44:16.799Z,76.34
2022-12-18T19:46:46.258Z,76.22
2022-12-18T19:49:17.701Z,76.21
2022-12-18T19:51:45.848Z,76.58
2022-12-18T19:54:16.908Z,76.65
2022-12-18T19:56:45.466Z,76.84
2022-12-18T19:59:12.879Z,76.90
2022-12-18T20:01:40.235Z,76.72
2022-12-18T20:04:07.523Z,76.32
2022-12-18T20:06:56.500Z,76.63
2022-12-18T20:09:23.698Z,76.65
2022-12-18T20:11:50.871Z,76.69
2022-12-18T20:14:22.688Z,77.06
2022-12-18T20:16:51.534Z,76.70
2022-12-18T20:19:19.357Z,76.96
2022-12-18T20:21:46.635Z,76.68
2022-12-18T20:24:13.810Z,76.77
2022-12-18T20:26:40.895Z,77.23
2022-12-18T20:29:07.910Z,77.76
2022-12-18T20:31:35.113Z,77.65
2022-12-18T20:34:02.711Z,78.06
2022-12-18T20:36:32.835Z,77.95
2022-12-18T20:39:02.626Z,77.94
2022-12-18T20:41:38.085Z,77.61
2022-12-18T20:44:11.185Z,77.94
2022-12-18T20:46:52.913Z,77.50
2022-12-18T20:49:19.952Z,77.75
2022-12-18T20:51:51.602Z,77.64
2022-12-18T20:54:18.627Z,77.76
2022-12-18T20:56:45.597Z,77.39
2022-12-18T20:59:12.957Z,77.90
2022-12-18T21:01:40.859Z,78.14
2022-12-18T21:04:14.507Z,77.43
2022-12-18T21:06:42.922Z,77.67
2022-12-18T21:09:12.994Z,77.90
2022-12-18T21:12:10.374Z,77.91
2022-12-18T21:14:39.443Z,78.01
2022-12-18T21:17:06.578Z,77.55
2022-12-18T21:19:33.627Z,77.60
2022-12-18T21:22:00.856Z,78.34
2022-12-18T21:24:28.196Z,78.02
2022-12-18T21:26:58.990Z,77.85
2022-12-18T21:29:26.724Z,78.36
2022-12-18T21:31:54.958Z,78.23
2022-12-18T21:34:30.318Z,78.25
2022-12-18T21:36:59.734Z,78.15
2022-12-18T21:39:28.675Z,78.03
2022-12-18T21:42:15.212Z,77.53
2022-12-18T21:44:43.293Z,77.53
2022-12-18T21:47:22.387Z,77.93
2022-12-18T21:49:53.641Z,77.67
2022-12-18T21:52:29.834Z,77.72
2022-12-18T21:55:08.909Z,77.43
2022-12-18T21:57:39.102Z,76.80
2022-12-18T22:00:10.517Z,76.99
2022-12-18T22:02:39.882Z,77.67
2022-12-18T22:05:07.561Z,77.69
2022-12-18T22:07:34.723Z,77.91
2022-12-18T22:10:02.169Z,77.65
2022-12-18T22:12:38.050Z,77.51
2022-12-18T22:15:21.011Z,77.24
2022-12-18T22:17:50.527Z,77.02
2022-12-18T22:20:20.194Z,76.78
2022-12-18T22:22:48.580Z,77.05
2022-12-18T22:25:15.593Z,77.39
2022-12-18T22:27:43.130Z,77.72
2022-12-18T22:30:14.488Z,77.39
2022-12-18T22:32:41.494Z,77.50
2022-12-18T22:35:14.290Z,77.67
2022-12-18T22:37:42.919Z,77.70
2022-12-18T22:40:25.446Z,77.49
2022-12-18T22:42:54.466Z,77.19
2022-12-18T22:45:22.932Z,77.48
2022-12-18T22:47:50.485Z,76.99
2022-12-18T22:50:17.757Z,77.10
2022-12-18T22:52:45.012Z,77.42
2022-12-18T22:55:11.950Z,76.92
2022-12-18T22:57:40.728Z,77.21
2022-12-18T23:00:13.549Z,76.59
2022-12-18T23:02:40.774Z,76.88
2022-12-18T23:05:08.567Z,77.06
2022-12-18T23:07:35.656Z,76.69
2022-12-18T23:10:02.630Z,77.18
2022-12-18T23:12:29.587Z,76.87
2022-12-18T23:14:56.624Z,76.39
2022-12-18T23:17:23.659Z,77.07
2022-12-18T23:19:51.108Z,76.82
2022-12-18T23:22:18.279Z,76.85
2022-12-18T23:24:46.064Z,77.02
2022-12-18T23:27:13.213Z,76.87
2022-12-18T23:29:40.868Z,76.92
2022-12-18T23:32:08.494Z,77.13
2022-12-18T23:34:35.531Z,76.79
2022-12-18T23:37:03.832Z,76.54
2022-12-18T23:39:31.227Z,76.23
2022-12-18T23:42:01.725Z,75.97
2022-12-18T23:44:28.925Z,76.21
2022-12-18T23:46:56.157Z,76.13
2022-12-18T23:49:23.419Z,75.98
2022-12-18T23:51:50.714Z,76.27
2022-12-18T23:54:22.369Z,75.97
2022-12-18T23:57:00.900Z,75.47
2022-12-18T23:59:27.880Z,75.22
